sensor_id;sensor_type;location;lat;lon;timestamp;P1;durP1;ratioP1;P2;durP2;ratioP2
11854;SDS011;5987;53.140;8.904;2023-04-12T00:02:39;4.93;;;2.53;;
11854;SDS011;5987;53.140;8.904;2023-04-12T00:05:46;3.97;;;3.10;;
11854;SDS011;5987;53.140;8.904;2023-04-12T00:08:55;5.37;;;2.87;;
11854;SDS011;5987;53.140;8.904;2023-04-12T00:11:59;5.40;;;2.90;;
11854;SDS011;5987;53.140;8.904;2023-04-12T00:15:03;5.57;;;2.80;;
11854;SDS011;5987;53.140;8.904;2023-04-12T00:18:08;5.20;;;2.50;;
11854;SDS011;5987;53.140;8.904;2023-04-12T00:21:13;6.47;;;3.13;;
11854;SDS011;5987;53.140;8.904;2023-04-12T00:24:19;4.93;;;2.77;;
11854;SDS011;5987;53.140;8.904;2023-04-12T00:27:23;8.33;;;3.10;;
11854;SDS011;5987;53.140;8.904;2023-04-12T00:30:27;3.60;;;2.73;;
11854;SDS011;5987;53.140;8.904;2023-04-12T00:33:32;7.17;;;3.10;;
11854;SDS011;5987;53.140;8.904;2023-04-12T00:36:37;6.00;;;3.03;;
11854;SDS011;5987;53.140;8.904;2023-04-12T00:39:40;7.57;;;2.97;;
11854;SDS011;5987;53.140;8.904;2023-04-12T00:42:44;6.50;;;2.37;;
11854;SDS011;5987;53.140;8.904;2023-04-12T00:45:48;5.73;;;3.17;;
11854;SDS011;5987;53.140;8.904;2023-04-12T00:48:52;7.30;;;3.10;;
11854;SDS011;5987;53.140;8.904;2023-04-12T00:51:59;7.23;;;2.93;;
11854;SDS011;5987;53.140;8.904;2023-04-12T00:55:07;5.10;;;2.67;;
11854;SDS011;5987;53.140;8.904;2023-04-12T00:58:12;5.27;;;2.90;;
11854;SDS011;5987;53.140;8.904;2023-04-12T01:01:16;5.57;;;2.43;;
11854;SDS011;5987;53.140;8.904;2023-04-12T01:04:20;7.47;;;2.57;;
11854;SDS011;5987;53.140;8.904;2023-04-12T01:07:31;4.97;;;2.83;;
11854;SDS011;5987;53.140;8.904;2023-04-12T01:10:48;4.53;;;2.30;;
11854;SDS011;5987;53.140;8.904;2023-04-12T01:14:04;4.23;;;2.37;;
11854;SDS011;5987;53.140;8.904;2023-04-12T01:17:15;5.07;;;3.03;;
11854;SDS011;5987;53.140;8.904;2023-04-12T01:20:25;4.33;;;2.87;;
11854;SDS011;5987;53.140;8.904;2023-04-12T01:23:44;5.83;;;2.83;;
11854;SDS011;5987;53.140;8.904;2023-04-12T01:27:09;5.63;;;3.00;;
11854;SDS011;5987;53.140;8.904;2023-04-12T01:30:20;7.43;;;3.10;;
11854;SDS011;5987;53.140;8.904;2023-04-12T01:33:26;8.50;;;3.40;;
11854;SDS011;5987;53.140;8.904;2023-04-12T01:36:32;10.03;;;3.50;;
11854;SDS011;5987;53.140;8.904;2023-04-12T01:39:37;8.23;;;3.33;;
11854;SDS011;5987;53.140;8.904;2023-04-12T01:42:43;6.90;;;3.40;;
11854;SDS011;5987;53.140;8.904;2023-04-12T01:45:47;3.63;;;3.10;;
11854;SDS011;5987;53.140;8.904;2023-04-12T01:48:51;5.37;;;2.83;;
11854;SDS011;5987;53.140;8.904;2023-04-12T01:51:57;7.50;;;3.00;;
11854;SDS011;5987;53.140;8.904;2023-04-12T01:55:09;7.93;;;2.60;;
11854;SDS011;5987;53.140;8.904;2023-04-12T01:58:19;4.87;;;2.87;;
11854;SDS011;5987;53.140;8.904;2023-04-12T02:01:24;4.43;;;2.50;;
11854;SDS011;5987;53.140;8.904;2023-04-12T02:04:30;7.87;;;3.03;;
11854;SDS011;5987;53.140;8.904;2023-04-12T02:07:35;5.30;;;2.70;;
11854;SDS011;5987;53.140;8.904;2023-04-12T02:10:39;5.87;;;3.10;;
11854;SDS011;5987;53.140;8.904;2023-04-12T02:13:44;7.53;;;2.80;;
11854;SDS011;5987;53.140;8.904;2023-04-12T02:16:47;3.13;;;2.53;;
11854;SDS011;5987;53.140;8.904;2023-04-12T02:19:51;4.43;;;3.17;;
11854;SDS011;5987;53.140;8.904;2023-04-12T02:22:56;7.47;;;2.73;;
11854;SDS011;5987;53.140;8.904;2023-04-12T02:26:00;7.67;;;2.40;;
11854;SDS011;5987;53.140;8.904;2023-04-12T02:29:06;3.00;;;2.27;;
11854;SDS011;5987;53.140;8.904;2023-04-12T02:32:11;7.27;;;2.47;;
11854;SDS011;5987;53.140;8.904;2023-04-12T02:35:14;9.10;;;2.60;;
11854;SDS011;5987;53.140;8.904;2023-04-12T02:38:18;5.27;;;2.63;;
11854;SDS011;5987;53.140;8.904;2023-04-12T02:41:22;9.20;;;3.27;;
11854;SDS011;5987;53.140;8.904;2023-04-12T02:44:29;4.90;;;2.40;;
11854;SDS011;5987;53.140;8.904;2023-04-12T02:47:32;4.73;;;2.27;;
11854;SDS011;5987;53.140;8.904;2023-04-12T02:50:36;6.23;;;2.63;;
11854;SDS011;5987;53.140;8.904;2023-04-12T02:53:40;3.70;;;2.57;;
11854;SDS011;5987;53.140;8.904;2023-04-12T02:56:43;4.07;;;2.57;;
11854;SDS011;5987;53.140;8.904;2023-04-12T02:59:49;5.30;;;2.77;;
11854;SDS011;5987;53.140;8.904;2023-04-12T03:02:54;5.60;;;2.03;;
11854;SDS011;5987;53.140;8.904;2023-04-12T03:05:59;9.07;;;2.70;;
11854;SDS011;5987;53.140;8.904;2023-04-12T03:09:03;3.87;;;2.23;;
11854;SDS011;5987;53.140;8.904;2023-04-12T03:12:07;4.07;;;2.00;;
11854;SDS011;5987;53.140;8.904;2023-04-12T03:15:12;5.27;;;2.40;;
11854;SDS011;5987;53.140;8.904;2023-04-12T03:18:15;4.77;;;2.00;;
11854;SDS011;5987;53.140;8.904;2023-04-12T03:21:21;3.70;;;2.00;;
11854;SDS011;5987;53.140;8.904;2023-04-12T03:24:25;8.10;;;2.13;;
11854;SDS011;5987;53.140;8.904;2023-04-12T03:27:28;2.27;;;1.77;;
11854;SDS011;5987;53.140;8.904;2023-04-12T03:30:33;6.30;;;2.43;;
11854;SDS011;5987;53.140;8.904;2023-04-12T03:33:37;6.60;;;2.30;;
11854;SDS011;5987;53.140;8.904;2023-04-12T03:36:41;4.73;;;2.03;;
11854;SDS011;5987;53.140;8.904;2023-04-12T03:39:45;8.77;;;2.73;;
11854;SDS011;5987;53.140;8.904;2023-04-12T03:42:49;4.00;;;2.07;;
11854;SDS011;5987;53.140;8.904;2023-04-12T03:45:54;5.73;;;2.60;;
11854;SDS011;5987;53.140;8.904;2023-04-12T03:48:58;5.40;;;2.60;;
11854;SDS011;5987;53.140;8.904;2023-04-12T03:52:01;6.77;;;2.97;;
11854;SDS011;5987;53.140;8.904;2023-04-12T03:55:06;2.93;;;2.57;;
11854;SDS011;5987;53.140;8.904;2023-04-12T03:58:12;5.30;;;2.87;;
11854;SDS011;5987;53.140;8.904;2023-04-12T04:01:18;6.17;;;2.93;;
11854;SDS011;5987;53.140;8.904;2023-04-12T04:04:22;7.53;;;3.03;;
11854;SDS011;5987;53.140;8.904;2023-04-12T04:07:26;8.50;;;2.93;;
11854;SDS011;5987;53.140;8.904;2023-04-12T04:10:29;7.30;;;2.83;;
11854;SDS011;5987;53.140;8.904;2023-04-12T04:13:33;6.70;;;3.53;;
11854;SDS011;5987;53.140;8.904;2023-04-12T04:16:38;6.73;;;3.60;;
11854;SDS011;5987;53.140;8.904;2023-04-12T04:19:41;4.93;;;2.97;;
11854;SDS011;5987;53.140;8.904;2023-04-12T04:22:45;7.97;;;3.27;;
11854;SDS011;5987;53.140;8.904;2023-04-12T04:25:49;6.90;;;3.50;;
11854;SDS011;5987;53.140;8.904;2023-04-12T04:28:54;5.80;;;3.23;;
11854;SDS011;5987;53.140;8.904;2023-04-12T04:32:03;8.33;;;3.77;;
11854;SDS011;5987;53.140;8.904;2023-04-12T04:35:08;6.87;;;3.07;;
11854;SDS011;5987;53.140;8.904;2023-04-12T04:38:12;9.97;;;3.53;;
11854;SDS011;5987;53.140;8.904;2023-04-12T04:41:16;9.43;;;3.40;;
11854;SDS011;5987;53.140;8.904;2023-04-12T04:44:22;5.47;;;3.53;;
11854;SDS011;5987;53.140;8.904;2023-04-12T04:47:27;10.97;;;4.67;;
11854;SDS011;5987;53.140;8.904;2023-04-12T04:50:32;9.63;;;3.73;;
11854;SDS011;5987;53.140;8.904;2023-04-12T04:53:36;6.53;;;4.13;;
11854;SDS011;5987;53.140;8.904;2023-04-12T04:56:41;7.70;;;4.20;;
11854;SDS011;5987;53.140;8.904;2023-04-12T04:59:45;10.73;;;4.47;;
11854;SDS011;5987;53.140;8.904;2023-04-12T05:02:51;7.20;;;4.20;;
11854;SDS011;5987;53.140;8.904;2023-04-12T05:05:54;8.60;;;4.50;;
11854;SDS011;5987;53.140;8.904;2023-04-12T05:08:58;8.33;;;3.70;;
11854;SDS011;5987;53.140;8.904;2023-04-12T05:12:02;7.47;;;4.17;;
11854;SDS011;5987;53.140;8.904;2023-04-12T05:15:06;8.83;;;4.43;;
11854;SDS011;5987;53.140;8.904;2023-04-12T05:18:14;7.70;;;4.20;;
11854;SDS011;5987;53.140;8.904;2023-04-12T05:21:18;7.37;;;4.60;;
11854;SDS011;5987;53.140;8.904;2023-04-12T05:24:24;7.40;;;4.13;;
11854;SDS011;5987;53.140;8.904;2023-04-12T05:27:28;6.50;;;3.43;;
11854;SDS011;5987;53.140;8.904;2023-04-12T05:30:32;8.63;;;3.87;;
11854;SDS011;5987;53.140;8.904;2023-04-12T05:33:37;8.90;;;3.50;;
11854;SDS011;5987;53.140;8.904;2023-04-12T05:36:41;13.70;;;3.23;;
11854;SDS011;5987;53.140;8.904;2023-04-12T05:39:44;6.30;;;2.97;;
11854;SDS011;5987;53.140;8.904;2023-04-12T05:42:48;6.60;;;2.83;;
11854;SDS011;5987;53.140;8.904;2023-04-12T05:45:52;8.50;;;3.47;;
11854;SDS011;5987;53.140;8.904;2023-04-12T05:48:57;10.10;;;3.47;;
11854;SDS011;5987;53.140;8.904;2023-04-12T05:52:00;7.57;;;3.37;;
11854;SDS011;5987;53.140;8.904;2023-04-12T05:55:05;8.47;;;2.93;;
11854;SDS011;5987;53.140;8.904;2023-04-12T05:58:09;10.50;;;3.47;;
11854;SDS011;5987;53.140;8.904;2023-04-12T06:01:15;5.53;;;2.63;;
11854;SDS011;5987;53.140;8.904;2023-04-12T06:04:22;5.10;;;2.70;;
11854;SDS011;5987;53.140;8.904;2023-04-12T06:07:47;8.10;;;3.47;;
11854;SDS011;5987;53.140;8.904;2023-04-12T06:10:51;8.47;;;3.53;;
11854;SDS011;5987;53.140;8.904;2023-04-12T06:13:54;5.90;;;2.63;;
11854;SDS011;5987;53.140;8.904;2023-04-12T06:17:03;5.67;;;2.90;;
11854;SDS011;5987;53.140;8.904;2023-04-12T06:20:08;5.00;;;3.43;;
11854;SDS011;5987;53.140;8.904;2023-04-12T06:23:13;7.33;;;3.23;;
11854;SDS011;5987;53.140;8.904;2023-04-12T06:26:18;6.30;;;2.80;;
11854;SDS011;5987;53.140;8.904;2023-04-12T06:29:22;3.63;;;2.60;;
11854;SDS011;5987;53.140;8.904;2023-04-12T06:32:25;6.73;;;2.90;;
11854;SDS011;5987;53.140;8.904;2023-04-12T06:35:31;5.60;;;3.20;;
11854;SDS011;5987;53.140;8.904;2023-04-12T06:38:34;4.17;;;3.00;;
11854;SDS011;5987;53.140;8.904;2023-04-12T06:41:38;5.80;;;2.80;;
11854;SDS011;5987;53.140;8.904;2023-04-12T06:44:44;7.40;;;2.67;;
11854;SDS011;5987;53.140;8.904;2023-04-12T06:47:47;5.30;;;2.40;;
11854;SDS011;5987;53.140;8.904;2023-04-12T06:50:52;5.20;;;3.07;;
11854;SDS011;5987;53.140;8.904;2023-04-12T06:53:56;3.57;;;2.47;;
11854;SDS011;5987;53.140;8.904;2023-04-12T06:57:00;7.30;;;2.53;;
11854;SDS011;5987;53.140;8.904;2023-04-12T07:00:04;5.60;;;2.50;;
11854;SDS011;5987;53.140;8.904;2023-04-12T07:03:09;6.40;;;2.53;;
11854;SDS011;5987;53.140;8.904;2023-04-12T07:06:14;3.90;;;2.03;;
11854;SDS011;5987;53.140;8.904;2023-04-12T07:09:29;3.07;;;2.20;;
11854;SDS011;5987;53.140;8.904;2023-04-12T07:12:33;6.33;;;2.50;;
11854;SDS011;5987;53.140;8.904;2023-04-12T07:15:37;7.10;;;2.73;;
11854;SDS011;5987;53.140;8.904;2023-04-12T07:18:41;6.93;;;2.17;;
11854;SDS011;5987;53.140;8.904;2023-04-12T07:21:46;7.27;;;2.03;;
11854;SDS011;5987;53.140;8.904;2023-04-12T07:24:50;4.00;;;2.30;;
11854;SDS011;5987;53.140;8.904;2023-04-12T07:27:53;4.90;;;2.00;;
11854;SDS011;5987;53.140;8.904;2023-04-12T07:30:57;4.30;;;2.33;;
11854;SDS011;5987;53.140;8.904;2023-04-12T07:34:01;4.03;;;2.10;;
11854;SDS011;5987;53.140;8.904;2023-04-12T07:37:06;8.87;;;2.33;;
11854;SDS011;5987;53.140;8.904;2023-04-12T07:40:11;4.30;;;1.97;;
11854;SDS011;5987;53.140;8.904;2023-04-12T07:43:15;4.30;;;1.77;;
11854;SDS011;5987;53.140;8.904;2023-04-12T07:46:18;4.50;;;2.23;;
11854;SDS011;5987;53.140;8.904;2023-04-12T07:49:22;3.50;;;2.10;;
11854;SDS011;5987;53.140;8.904;2023-04-12T07:52:28;3.60;;;1.97;;
11854;SDS011;5987;53.140;8.904;2023-04-12T07:55:31;4.10;;;1.80;;
11854;SDS011;5987;53.140;8.904;2023-04-12T07:58:35;5.43;;;2.50;;
11854;SDS011;5987;53.140;8.904;2023-04-12T08:01:39;4.07;;;2.07;;
11854;SDS011;5987;53.140;8.904;2023-04-12T08:04:43;5.23;;;1.93;;
11854;SDS011;5987;53.140;8.904;2023-04-12T08:07:48;4.60;;;2.50;;
11854;SDS011;5987;53.140;8.904;2023-04-12T08:10:52;3.70;;;1.87;;
11854;SDS011;5987;53.140;8.904;2023-04-12T08:13:55;6.83;;;1.93;;
11854;SDS011;5987;53.140;8.904;2023-04-12T08:16:59;3.50;;;1.67;;
11854;SDS011;5987;53.140;8.904;2023-04-12T08:20:03;5.13;;;2.10;;
11854;SDS011;5987;53.140;8.904;2023-04-12T08:23:10;5.17;;;2.10;;
11854;SDS011;5987;53.140;8.904;2023-04-12T08:26:14;6.43;;;2.37;;
11854;SDS011;5987;53.140;8.904;2023-04-12T08:29:18;2.43;;;1.63;;
11854;SDS011;5987;53.140;8.904;2023-04-12T08:32:21;6.60;;;2.37;;
11854;SDS011;5987;53.140;8.904;2023-04-12T08:35:26;5.50;;;2.10;;
11854;SDS011;5987;53.140;8.904;2023-04-12T08:38:31;6.00;;;2.00;;
11854;SDS011;5987;53.140;8.904;2023-04-12T08:41:46;5.13;;;2.50;;
11854;SDS011;5987;53.140;8.904;2023-04-12T08:44:51;8.17;;;2.33;;
11854;SDS011;5987;53.140;8.904;2023-04-12T08:47:54;8.17;;;2.43;;
11854;SDS011;5987;53.140;8.904;2023-04-12T08:50:59;2.63;;;1.97;;
11854;SDS011;5987;53.140;8.904;2023-04-12T08:54:05;5.10;;;3.00;;
11854;SDS011;5987;53.140;8.904;2023-04-12T08:57:08;5.90;;;2.70;;
11854;SDS011;5987;53.140;8.904;2023-04-12T09:00:14;5.10;;;2.40;;
11854;SDS011;5987;53.140;8.904;2023-04-12T09:03:19;4.60;;;2.30;;
11854;SDS011;5987;53.140;8.904;2023-04-12T09:06:23;6.17;;;2.77;;
11854;SDS011;5987;53.140;8.904;2023-04-12T09:09:41;6.17;;;2.83;;
11854;SDS011;5987;53.140;8.904;2023-04-12T09:12:45;5.63;;;3.03;;
11854;SDS011;5987;53.140;8.904;2023-04-12T09:15:51;3.07;;;2.37;;
11854;SDS011;5987;53.140;8.904;2023-04-12T09:18:55;5.77;;;2.77;;
11854;SDS011;5987;53.140;8.904;2023-04-12T09:22:02;3.67;;;2.57;;
11854;SDS011;5987;53.140;8.904;2023-04-12T09:25:08;8.90;;;3.33;;
11854;SDS011;5987;53.140;8.904;2023-04-12T09:28:18;5.37;;;3.17;;
11854;SDS011;5987;53.140;8.904;2023-04-12T09:31:26;6.53;;;3.20;;
11854;SDS011;5987;53.140;8.904;2023-04-12T09:34:30;7.80;;;2.97;;
11854;SDS011;5987;53.140;8.904;2023-04-12T09:37:36;4.83;;;2.40;;
11854;SDS011;5987;53.140;8.904;2023-04-12T09:40:42;5.97;;;2.73;;
11854;SDS011;5987;53.140;8.904;2023-04-12T09:43:45;4.90;;;2.50;;
11854;SDS011;5987;53.140;8.904;2023-04-12T09:46:49;7.73;;;2.73;;
11854;SDS011;5987;53.140;8.904;2023-04-12T09:49:53;3.60;;;2.30;;
11854;SDS011;5987;53.140;8.904;2023-04-12T09:52:57;5.23;;;2.23;;
11854;SDS011;5987;53.140;8.904;2023-04-12T09:56:05;8.00;;;3.10;;
11854;SDS011;5987;53.140;8.904;2023-04-12T09:59:12;4.13;;;2.40;;
11854;SDS011;5987;53.140;8.904;2023-04-12T10:02:18;2.63;;;2.43;;
11854;SDS011;5987;53.140;8.904;2023-04-12T10:05:29;8.80;;;2.70;;
11854;SDS011;5987;53.140;8.904;2023-04-12T10:08:33;4.57;;;2.50;;
11854;SDS011;5987;53.140;8.904;2023-04-12T10:11:40;6.97;;;2.70;;
11854;SDS011;5987;53.140;8.904;2023-04-12T10:14:46;3.80;;;2.67;;
11854;SDS011;5987;53.140;8.904;2023-04-12T10:17:53;7.97;;;2.67;;
11854;SDS011;5987;53.140;8.904;2023-04-12T10:20:58;6.73;;;2.47;;
11854;SDS011;5987;53.140;8.904;2023-04-12T10:24:03;4.57;;;2.57;;
11854;SDS011;5987;53.140;8.904;2023-04-12T10:27:09;4.07;;;2.40;;
11854;SDS011;5987;53.140;8.904;2023-04-12T10:30:20;3.77;;;2.63;;
11854;SDS011;5987;53.140;8.904;2023-04-12T10:33:25;2.47;;;2.20;;
11854;SDS011;5987;53.140;8.904;2023-04-12T10:36:52;4.93;;;3.10;;
11854;SDS011;5987;53.140;8.904;2023-04-12T10:39:57;5.60;;;2.90;;
11854;SDS011;5987;53.140;8.904;2023-04-12T10:43:25;5.17;;;2.83;;
11854;SDS011;5987;53.140;8.904;2023-04-12T10:53:25;5.47;;;2.73;;
11854;SDS011;5987;53.140;8.904;2023-04-12T10:56:36;6.50;;;2.60;;
11854;SDS011;5987;53.140;8.904;2023-04-12T10:59:51;3.00;;;2.60;;
11854;SDS011;5987;53.140;8.904;2023-04-12T11:03:07;5.23;;;2.70;;
11854;SDS011;5987;53.140;8.904;2023-04-12T11:06:13;5.10;;;2.30;;
11854;SDS011;5987;53.140;8.904;2023-04-12T11:09:29;2.83;;;2.20;;
11854;SDS011;5987;53.140;8.904;2023-04-12T11:12:41;6.03;;;2.30;;
11854;SDS011;5987;53.140;8.904;2023-04-12T11:15:53;7.17;;;2.53;;
11854;SDS011;5987;53.140;8.904;2023-04-12T11:18:58;2.77;;;2.40;;
11854;SDS011;5987;53.140;8.904;2023-04-12T11:22:03;3.23;;;2.37;;
11854;SDS011;5987;53.140;8.904;2023-04-12T11:25:08;3.33;;;2.30;;
11854;SDS011;5987;53.140;8.904;2023-04-12T11:28:15;3.13;;;2.30;;
11854;SDS011;5987;53.140;8.904;2023-04-12T11:31:34;7.67;;;2.87;;
11854;SDS011;5987;53.140;8.904;2023-04-12T11:34:41;5.00;;;2.20;;
11854;SDS011;5987;53.140;8.904;2023-04-12T11:37:47;3.43;;;2.40;;
11854;SDS011;5987;53.140;8.904;2023-04-12T11:40:51;4.87;;;2.47;;
11854;SDS011;5987;53.140;8.904;2023-04-12T11:43:55;2.77;;;1.97;;
11854;SDS011;5987;53.140;8.904;2023-04-12T11:47:00;4.53;;;2.40;;
11854;SDS011;5987;53.140;8.904;2023-04-12T11:50:06;4.13;;;2.40;;
11854;SDS011;5987;53.140;8.904;2023-04-12T11:53:11;4.10;;;2.57;;
11854;SDS011;5987;53.140;8.904;2023-04-12T11:56:16;5.03;;;2.10;;
11854;SDS011;5987;53.140;8.904;2023-04-12T11:59:19;6.77;;;2.70;;
11854;SDS011;5987;53.140;8.904;2023-04-12T12:02:25;4.27;;;2.90;;
11854;SDS011;5987;53.140;8.904;2023-04-12T12:05:37;4.07;;;2.93;;
11854;SDS011;5987;53.140;8.904;2023-04-12T12:08:43;4.03;;;3.10;;
11854;SDS011;5987;53.140;8.904;2023-04-12T12:11:46;5.70;;;3.37;;
11854;SDS011;5987;53.140;8.904;2023-04-12T12:14:50;6.30;;;3.00;;
11854;SDS011;5987;53.140;8.904;2023-04-12T12:17:55;4.30;;;2.63;;
11854;SDS011;5987;53.140;8.904;2023-04-12T12:21:06;6.60;;;2.80;;
11854;SDS011;5987;53.140;8.904;2023-04-12T12:24:13;5.30;;;3.43;;
11854;SDS011;5987;53.140;8.904;2023-04-12T12:27:19;5.30;;;3.50;;
11854;SDS011;5987;53.140;8.904;2023-04-12T12:30:25;4.67;;;3.37;;
11854;SDS011;5987;53.140;8.904;2023-04-12T12:33:36;5.63;;;3.73;;
11854;SDS011;5987;53.140;8.904;2023-04-12T12:36:53;5.53;;;3.30;;
11854;SDS011;5987;53.140;8.904;2023-04-12T12:40:04;4.07;;;3.20;;
11854;SDS011;5987;53.140;8.904;2023-04-12T12:43:16;3.60;;;3.20;;
11854;SDS011;5987;53.140;8.904;2023-04-12T12:46:21;6.50;;;3.93;;
11854;SDS011;5987;53.140;8.904;2023-04-12T12:49:28;4.17;;;3.33;;
11854;SDS011;5987;53.140;8.904;2023-04-12T12:52:31;6.27;;;4.00;;
11854;SDS011;5987;53.140;8.904;2023-04-12T12:55:35;5.30;;;4.20;;
11854;SDS011;5987;53.140;8.904;2023-04-12T12:58:39;4.43;;;3.53;;
11854;SDS011;5987;53.140;8.904;2023-04-12T13:01:43;5.10;;;4.07;;
11854;SDS011;5987;53.140;8.904;2023-04-12T13:04:48;6.07;;;3.67;;
11854;SDS011;5987;53.140;8.904;2023-04-12T13:07:52;5.30;;;3.60;;
11854;SDS011;5987;53.140;8.904;2023-04-12T13:10:56;5.80;;;3.60;;
11854;SDS011;5987;53.140;8.904;2023-04-12T13:20:59;5.57;;;4.20;;
11854;SDS011;5987;53.140;8.904;2023-04-12T13:24:05;4.87;;;3.87;;
11854;SDS011;5987;53.140;8.904;2023-04-12T13:30:40;8.70;;;4.33;;
11854;SDS011;5987;53.140;8.904;2023-04-12T13:33:43;5.73;;;3.77;;
11854;SDS011;5987;53.140;8.904;2023-04-12T13:36:49;9.73;;;4.50;;
11854;SDS011;5987;53.140;8.904;2023-04-12T13:39:52;4.90;;;3.90;;
11854;SDS011;5987;53.140;8.904;2023-04-12T13:42:56;6.87;;;3.97;;
11854;SDS011;5987;53.140;8.904;2023-04-12T13:45:59;10.03;;;4.90;;
11854;SDS011;5987;53.140;8.904;2023-04-12T13:49:04;6.63;;;4.37;;
11854;SDS011;5987;53.140;8.904;2023-04-12T13:52:11;6.20;;;4.47;;
11854;SDS011;5987;53.140;8.904;2023-04-12T13:55:19;5.40;;;4.50;;
11854;SDS011;5987;53.140;8.904;2023-04-12T13:58:23;6.43;;;4.67;;
11854;SDS011;5987;53.140;8.904;2023-04-12T14:01:26;5.03;;;4.53;;
11854;SDS011;5987;53.140;8.904;2023-04-12T14:04:30;4.43;;;3.80;;
11854;SDS011;5987;53.140;8.904;2023-04-12T14:07:36;6.63;;;4.43;;
11854;SDS011;5987;53.140;8.904;2023-04-12T14:10:39;6.27;;;4.50;;
11854;SDS011;5987;53.140;8.904;2023-04-12T14:13:46;5.60;;;4.77;;
11854;SDS011;5987;53.140;8.904;2023-04-12T14:16:50;4.10;;;3.70;;
11854;SDS011;5987;53.140;8.904;2023-04-12T14:19:57;4.40;;;3.93;;
11854;SDS011;5987;53.140;8.904;2023-04-12T14:23:08;4.53;;;4.13;;
11854;SDS011;5987;53.140;8.904;2023-04-12T14:26:12;4.00;;;3.60;;
11854;SDS011;5987;53.140;8.904;2023-04-12T14:29:22;3.87;;;3.47;;
11854;SDS011;5987;53.140;8.904;2023-04-12T14:32:27;5.50;;;4.00;;
11854;SDS011;5987;53.140;8.904;2023-04-12T14:35:31;4.00;;;3.60;;
11854;SDS011;5987;53.140;8.904;2023-04-12T14:41:43;4.27;;;3.87;;
11854;SDS011;5987;53.140;8.904;2023-04-12T14:44:46;5.00;;;4.20;;
11854;SDS011;5987;53.140;8.904;2023-04-12T14:47:50;4.20;;;3.60;;
11854;SDS011;5987;53.140;8.904;2023-04-12T14:50:54;4.93;;;3.93;;
11854;SDS011;5987;53.140;8.904;2023-04-12T14:53:59;3.97;;;3.37;;
11854;SDS011;5987;53.140;8.904;2023-04-12T14:57:03;5.80;;;3.90;;
11854;SDS011;5987;53.140;8.904;2023-04-12T15:00:07;3.57;;;3.27;;
11854;SDS011;5987;53.140;8.904;2023-04-12T15:03:15;3.70;;;3.40;;
11854;SDS011;5987;53.140;8.904;2023-04-12T15:06:22;4.30;;;3.07;;
11854;SDS011;5987;53.140;8.904;2023-04-12T15:09:29;3.93;;;3.40;;
11854;SDS011;5987;53.140;8.904;2023-04-12T15:12:32;4.47;;;3.93;;
11854;SDS011;5987;53.140;8.904;2023-04-12T15:15:38;3.63;;;3.33;;
11854;SDS011;5987;53.140;8.904;2023-04-12T15:18:42;4.27;;;3.87;;
11854;SDS011;5987;53.140;8.904;2023-04-12T15:21:46;4.70;;;3.33;;
11854;SDS011;5987;53.140;8.904;2023-04-12T15:24:54;4.40;;;2.90;;
11854;SDS011;5987;53.140;8.904;2023-04-12T15:27:58;3.57;;;3.00;;
11854;SDS011;5987;53.140;8.904;2023-04-12T15:31:02;4.67;;;3.30;;
11854;SDS011;5987;53.140;8.904;2023-04-12T15:34:06;3.40;;;3.10;;
11854;SDS011;5987;53.140;8.904;2023-04-12T15:37:10;4.43;;;3.77;;
11854;SDS011;5987;53.140;8.904;2023-04-12T15:40:16;3.53;;;3.23;;
11854;SDS011;5987;53.140;8.904;2023-04-12T15:43:21;3.13;;;2.80;;
11854;SDS011;5987;53.140;8.904;2023-04-12T15:46:25;3.53;;;2.83;;
11854;SDS011;5987;53.140;8.904;2023-04-12T15:49:29;3.30;;;3.00;;
11854;SDS011;5987;53.140;8.904;2023-04-12T15:52:36;4.37;;;3.50;;
11854;SDS011;5987;53.140;8.904;2023-04-12T15:55:44;3.03;;;2.73;;
11854;SDS011;5987;53.140;8.904;2023-04-12T15:58:49;3.80;;;3.33;;
11854;SDS011;5987;53.140;8.904;2023-04-12T16:01:53;3.80;;;3.40;;
11854;SDS011;5987;53.140;8.904;2023-04-12T16:04:56;4.10;;;3.03;;
11854;SDS011;5987;53.140;8.904;2023-04-12T16:08:01;6.70;;;5.13;;
11854;SDS011;5987;53.140;8.904;2023-04-12T16:11:06;5.33;;;4.67;;
11854;SDS011;5987;53.140;8.904;2023-04-12T16:14:13;4.53;;;4.13;;
11854;SDS011;5987;53.140;8.904;2023-04-12T16:17:16;6.13;;;5.13;;
11854;SDS011;5987;53.140;8.904;2023-04-12T16:20:21;6.60;;;5.90;;
11854;SDS011;5987;53.140;8.904;2023-04-12T16:23:26;6.80;;;6.03;;
11854;SDS011;5987;53.140;8.904;2023-04-12T16:26:31;6.87;;;5.93;;
11854;SDS011;5987;53.140;8.904;2023-04-12T16:29:35;9.93;;;6.30;;
11854;SDS011;5987;53.140;8.904;2023-04-12T16:32:39;6.00;;;4.93;;
11854;SDS011;5987;53.140;8.904;2023-04-12T16:35:43;5.47;;;4.00;;
11854;SDS011;5987;53.140;8.904;2023-04-12T16:38:47;4.10;;;3.70;;
11854;SDS011;5987;53.140;8.904;2023-04-12T16:41:53;6.17;;;4.30;;
11854;SDS011;5987;53.140;8.904;2023-04-12T16:44:57;6.13;;;4.77;;
11854;SDS011;5987;53.140;8.904;2023-04-12T16:48:01;6.43;;;5.07;;
11854;SDS011;5987;53.140;8.904;2023-04-12T16:51:06;4.43;;;3.83;;
11854;SDS011;5987;53.140;8.904;2023-04-12T16:54:09;5.57;;;4.00;;
11854;SDS011;5987;53.140;8.904;2023-04-12T16:57:14;4.10;;;3.37;;
11854;SDS011;5987;53.140;8.904;2023-04-12T17:00:19;5.90;;;4.13;;
11854;SDS011;5987;53.140;8.904;2023-04-12T17:03:32;6.20;;;4.10;;
11854;SDS011;5987;53.140;8.904;2023-04-12T17:06:37;6.40;;;4.50;;
11854;SDS011;5987;53.140;8.904;2023-04-12T17:09:42;6.53;;;5.00;;
11854;SDS011;5987;53.140;8.904;2023-04-12T17:12:47;5.00;;;4.40;;
11854;SDS011;5987;53.140;8.904;2023-04-12T17:15:53;4.43;;;3.93;;
11854;SDS011;5987;53.140;8.904;2023-04-12T17:18:57;5.53;;;4.70;;
11854;SDS011;5987;53.140;8.904;2023-04-12T17:22:01;4.70;;;4.17;;
11854;SDS011;5987;53.140;8.904;2023-04-12T17:25:05;6.00;;;5.40;;
11854;SDS011;5987;53.140;8.904;2023-04-12T17:28:12;5.37;;;4.87;;
11854;SDS011;5987;53.140;8.904;2023-04-12T17:31:16;5.27;;;4.50;;
11854;SDS011;5987;53.140;8.904;2023-04-12T17:34:23;5.33;;;4.60;;
11854;SDS011;5987;53.140;8.904;2023-04-12T17:37:26;5.63;;;5.13;;
11854;SDS011;5987;53.140;8.904;2023-04-12T17:40:30;7.23;;;5.80;;
11854;SDS011;5987;53.140;8.904;2023-04-12T17:43:35;6.83;;;4.50;;
11854;SDS011;5987;53.140;8.904;2023-04-12T17:46:39;4.17;;;3.00;;
11854;SDS011;5987;53.140;8.904;2023-04-12T17:49:44;4.67;;;1.80;;
11854;SDS011;5987;53.140;8.904;2023-04-12T17:52:48;8.43;;;2.50;;
11854;SDS011;5987;53.140;8.904;2023-04-12T17:55:52;6.40;;;1.80;;
11854;SDS011;5987;53.140;8.904;2023-04-12T17:58:57;5.47;;;1.60;;
11854;SDS011;5987;53.140;8.904;2023-04-12T18:02:02;6.00;;;1.90;;
11854;SDS011;5987;53.140;8.904;2023-04-12T18:05:06;4.30;;;2.20;;
11854;SDS011;5987;53.140;8.904;2023-04-12T18:08:11;4.70;;;1.90;;
11854;SDS011;5987;53.140;8.904;2023-04-12T18:11:15;6.23;;;2.00;;
11854;SDS011;5987;53.140;8.904;2023-04-12T18:14:20;8.53;;;1.90;;
11854;SDS011;5987;53.140;8.904;2023-04-12T18:17:35;6.00;;;2.10;;
11854;SDS011;5987;53.140;8.904;2023-04-12T18:20:44;4.37;;;1.70;;
11854;SDS011;5987;53.140;8.904;2023-04-12T18:23:47;11.37;;;2.80;;
11854;SDS011;5987;53.140;8.904;2023-04-12T18:26:52;5.73;;;2.23;;
11854;SDS011;5987;53.140;8.904;2023-04-12T18:30:04;10.03;;;2.20;;
11854;SDS011;5987;53.140;8.904;2023-04-12T18:33:10;7.80;;;3.40;;
11854;SDS011;5987;53.140;8.904;2023-04-12T18:36:13;6.87;;;2.27;;
11854;SDS011;5987;53.140;8.904;2023-04-12T18:39:17;7.87;;;2.30;;
11854;SDS011;5987;53.140;8.904;2023-04-12T18:42:21;5.27;;;2.17;;
11854;SDS011;5987;53.140;8.904;2023-04-12T18:45:38;8.67;;;2.17;;
11854;SDS011;5987;53.140;8.904;2023-04-12T18:48:42;7.90;;;2.40;;
11854;SDS011;5987;53.140;8.904;2023-04-12T18:51:47;6.00;;;2.50;;
11854;SDS011;5987;53.140;8.904;2023-04-12T18:54:50;7.50;;;2.40;;
11854;SDS011;5987;53.140;8.904;2023-04-12T18:57:54;5.63;;;2.30;;
11854;SDS011;5987;53.140;8.904;2023-04-12T19:00:59;5.67;;;2.43;;
11854;SDS011;5987;53.140;8.904;2023-04-12T19:04:03;5.63;;;2.50;;
11854;SDS011;5987;53.140;8.904;2023-04-12T19:07:14;8.20;;;3.10;;
11854;SDS011;5987;53.140;8.904;2023-04-12T19:10:19;8.87;;;3.87;;
11854;SDS011;5987;53.140;8.904;2023-04-12T19:13:28;8.70;;;3.90;;
11854;SDS011;5987;53.140;8.904;2023-04-12T19:16:34;5.87;;;3.37;;